Time;durP1;ratioP1;P1;durP2;ratioP2;P2;SDS_P1;SDS_P2;PMS_P1;PMS_P2;Temp;Humidity;BMP_temperature;BMP_pressure;BME280_temperature;BME280_humidity;BME280_pressure;Samples;Min_cycle;Max_cycle;Signal;HPM_P1;HPM_P2
2023/05/30 00:00:13;;;;;;;11.13;10.27;;;;;;;13.38;100.00;92730.81;5013236;28;20231;-72
2023/05/30 00:02:40;;;;;;;10.90;9.87;;;;;;;13.30;100.00;92722.84;5011675;28;20179;-72
2023/05/30 00:05:05;;;;;;;10.63;9.83;;;;;;;13.23;100.00;92709.34;5011518;28;20226;-72
2023/05/30 00:07:31;;;;;;;10.93;10.10;;;;;;;13.33;100.00;92733.53;5016896;28;20185;-72
2023/05/30 00:09:56;;;;;;;10.90;10.10;;;;;;;13.02;100.00;92674.88;5011917;28;20258;-72
2023/05/30 00:12:21;;;;;;;10.83;10.23;;;;;;;13.30;100.00;92725.47;5012114;28;20217;-71
2023/05/30 00:14:47;;;;;;;10.60;9.80;;;;;;;13.35;100.00;92723.53;5011383;28;20236;-72
2023/05/30 00:17:16;;;;;;;10.40;9.80;;;;;;;13.13;100.00;92720.81;5011662;28;20226;-71
2023/05/30 00:19:42;;;;;;;10.37;9.57;;;;;;;13.33;100.00;92741.38;5011813;28;20238;-72
2023/05/30 00:22:07;;;;;;;10.80;10.00;;;;;;;13.45;100.00;92736.44;5015492;28;20194;-72
2023/05/30 00:24:33;;;;;;;10.83;9.87;;;;;;;13.49;100.00;92741.88;5012645;28;20262;-72
2023/05/30 00:26:58;;;;;;;10.93;10.03;;;;;;;13.34;100.00;92745.56;5018936;28;20204;-72
2023/05/30 00:29:24;;;;;;;10.90;10.00;;;;;;;13.20;100.00;92738.78;5011655;28;20222;-72
2023/05/30 00:31:49;;;;;;;9.50;8.80;;;;;;;13.12;100.00;92745.44;4994495;28;20195;-72
2023/05/30 00:34:15;;;;;;;10.27;9.77;;;;;;;13.31;100.00;92745.38;5011664;28;20230;-72
2023/05/30 00:36:40;;;;;;;11.47;10.37;;;;;;;13.22;100.00;92720.88;5015302;28;20175;-72
2023/05/30 00:39:06;;;;;;;10.77;10.10;;;;;;;13.37;100.00;92737.09;5011977;28;20197;-71
2023/05/30 00:41:31;;;;;;;10.27;9.43;;;;;;;13.45;100.00;92739.03;5003003;28;20198;-71
2023/05/30 00:43:56;;;;;;;10.77;10.17;;;;;;;13.30;100.00;92736.72;5010015;28;20186;-73
2023/05/30 00:46:25;;;;;;;10.40;9.63;;;;;;;13.39;100.00;92734.19;5011625;28;20193;-72
2023/05/30 00:48:51;;;;;;;11.30;10.37;;;;;;;13.37;100.00;92738.97;5010959;28;20186;-72
2023/05/30 00:51:19;;;;;;;9.97;9.37;;;;;;;13.28;100.00;92725.75;5014665;28;20257;-72
2023/05/30 00:53:44;;;;;;;10.70;10.00;;;;;;;13.24;100.00;92729.25;5010859;28;20207;-73
2023/05/30 00:56:12;;;;;;;10.20;9.37;;;;;;;13.33;100.00;92741.38;5011269;28;20221;-71
2023/05/30 00:58:39;;;;;;;10.00;9.50;;;;;;;13.25;100.00;92731.56;5010934;28;20190;-72
2023/05/30 01:01:05;;;;;;;10.47;9.87;;;;;;;13.19;100.00;92727.50;5012062;28;20230;-71
2023/05/30 01:03:32;;;;;;;10.07;9.27;;;;;;;13.16;100.00;92735.16;5011039;28;20175;-72
2023/05/30 01:06:00;;;;;;;10.73;9.80;;;;;;;13.17;100.00;92741.97;5011156;28;20223;-72
2023/05/30 01:08:26;;;;;;;11.33;10.23;;;;;;;12.71;100.00;92732.28;5012092;28;20982;-72
2023/05/30 01:10:59;;;;;;;11.00;10.20;;;;;;;13.01;100.00;92724.97;5017964;28;20225;-71
2023/05/30 01:13:37;;;;;;;10.43;9.77;;;;;;;13.01;100.00;92723.13;5019129;28;20208;-72
2023/05/30 01:16:08;;;;;;;10.63;9.83;;;;;;;13.11;100.00;92746.53;5012953;28;21176;-71
2023/05/30 01:18:40;;;;;;;11.40;10.70;;;;;;;13.11;100.00;92738.66;5010847;28;20878;-72
2023/05/30 01:21:10;;;;;;;10.90;10.30;;;;;;;13.16;100.00;92737.78;5010182;28;20239;-70
2023/05/30 01:24:06;;;;;;;11.23;10.40;;;;;;;12.87;100.00;92723.06;4993230;28;20192;-72
2023/05/30 01:26:59;;;;;;;11.67;10.97;;;;;;;12.77;100.00;92719.84;4966959;28;20211;-72
2023/05/30 01:29:26;;;;;;;11.13;10.43;;;;;;;12.76;100.00;92707.81;5009862;28;20224;-72
2023/05/30 01:31:54;;;;;;;10.90;10.20;;;;;;;12.67;100.00;92715.56;5010717;28;20179;-72
2023/05/30 01:34:20;;;;;;;11.17;10.47;;;;;;;12.76;100.00;92713.06;5010213;28;20667;-72
2023/05/30 01:36:45;;;;;;;11.20;10.33;;;;;;;12.84;100.00;92721.03;5015639;28;20194;-72
2023/05/30 01:39:11;;;;;;;10.90;10.27;;;;;;;12.81;100.00;92723.44;5013284;28;20318;-73
2023/05/30 01:42:01;;;;;;;10.63;9.93;;;;;;;12.96;100.00;92723.19;5015898;28;20176;-72
2023/05/30 01:44:54;;;;;;;11.13;10.13;;;;;;;12.66;100.00;92721.09;5000950;28;20249;-70
2023/05/30 01:47:35;;;;;;;12.30;11.50;;;;;;;12.82;100.00;92701.44;5018315;28;20199;-72
2023/05/30 01:50:28;;;;;;;12.03;11.03;;;;;;;13.07;100.00;92714.09;5019973;28;20290;-72
2023/05/30 01:53:02;;;;;;;10.43;9.83;;;;;;;13.01;100.00;92725.75;4997922;28;20215;-72
2023/05/30 01:55:30;;;;;;;11.57;10.57;;;;;;;12.84;100.00;92709.78;5008778;28;20220;-72
2023/05/30 01:57:57;;;;;;;12.43;11.63;;;;;;;13.00;100.00;92729.41;5023015;28;20183;-71
2023/05/30 02:00:24;;;;;;;10.27;9.53;;;;;;;13.06;100.00;92723.00;5009624;28;20254;-72
2023/05/30 02:02:49;;;;;;;11.33;10.40;;;;;;;12.90;100.00;92726.97;5010437;28;20175;-72
2023/05/30 02:05:15;;;;;;;11.83;10.97;;;;;;;12.98;100.00;92736.75;5010419;28;20235;-72
2023/05/30 02:07:40;;;;;;;10.83;10.13;;;;;;;12.91;100.00;92728.50;5020857;28;20834;-70
2023/05/30 02:10:06;;;;;;;11.50;10.67;;;;;;;12.63;100.00;92700.72;5011231;28;20227;-72
2023/05/30 02:12:31;;;;;;;12.90;11.60;;;;;;;12.87;100.00;92732.78;5009954;28;20180;-72
2023/05/30 02:14:57;;;;;;;11.73;10.90;;;;;;;12.86;100.00;92750.34;5009069;28;20223;-72
2023/05/30 02:17:23;;;;;;;11.50;10.50;;;;;;;12.65;100.00;92730.03;5009904;28;20221;-72
2023/05/30 02:19:49;;;;;;;11.07;10.20;;;;;;;12.73;100.00;92739.84;5018313;28;20247;-72
2023/05/30 02:22:16;;;;;;;12.13;11.33;;;;;;;12.86;100.00;92746.94;5013708;28;20199;-73
2023/05/30 02:24:41;;;;;;;13.43;11.57;;;;;;;12.71;100.00;92732.28;5018333;28;20218;-72
2023/05/30 02:27:08;;;;;;;11.40;10.60;;;;;;;12.78;100.00;92748.38;5013336;28;20193;-72
2023/05/30 02:29:33;;;;;;;12.40;11.30;;;;;;;12.73;100.00;92737.97;5019590;28;20255;-72
2023/05/30 02:31:59;;;;;;;11.80;11.00;;;;;;;12.79;100.00;92741.31;5011008;28;20187;-72
2023/05/30 02:34:24;;;;;;;11.63;10.83;;;;;;;12.84;100.00;92744.59;5010787;28;20230;-72
2023/05/30 02:36:50;;;;;;;11.73;10.93;;;;;;;12.74;100.00;92749.25;5013412;28;20253;-72
2023/05/30 02:39:15;;;;;;;10.90;10.00;;;;;;;12.80;100.00;92746.25;5019731;28;20233;-72
2023/05/30 02:41:41;;;;;;;11.13;10.43;;;;;;;12.58;100.00;92724.34;5007213;28;20175;-72
2023/05/30 02:44:06;;;;;;;10.90;10.20;;;;;;;12.58;100.00;92742.69;4992077;28;20224;-72
2023/05/30 02:46:33;;;;;;;12.37;11.37;;;;;;;12.43;100.00;92738.50;5011818;28;20189;-71
2023/05/30 02:48:59;;;;;;;12.13;11.00;;;;;;;12.64;100.00;92737.09;5009270;28;20210;-72
2023/05/30 02:51:25;;;;;;;11.70;11.00;;;;;;;12.74;100.00;92736.94;5012892;28;20981;-71
2023/05/30 02:53:51;;;;;;;11.57;10.77;;;;;;;12.26;100.00;92708.66;5019795;28;20203;-72
2023/05/30 02:56:16;;;;;;;12.43;11.70;;;;;;;12.32;100.00;92725.84;5009690;28;20239;-71
2023/05/30 02:58:41;;;;;;;10.77;10.10;;;;;;;12.45;100.00;92696.31;5009538;28;20186;-72
2023/05/30 03:01:07;;;;;;;11.73;10.87;;;;;;;12.63;100.00;92719.03;5010519;28;20223;-71
2023/05/30 03:03:34;;;;;;;11.40;10.60;;;;;;;12.49;100.00;92721.63;5021103;28;20214;-72
2023/05/30 03:06:01;;;;;;;11.87;10.77;;;;;;;12.73;100.00;92732.75;5012940;28;20248;-73
2023/05/30 03:08:28;;;;;;;11.13;10.37;;;;;;;12.77;100.00;92727.72;5012168;28;20245;-72
2023/05/30 03:10:54;;;;;;;12.13;11.23;;;;;;;12.95;100.00;92732.88;5012569;28;20287;-70
2023/05/30 03:13:20;;;;;;;11.70;10.90;;;;;;;12.91;100.00;92721.44;5022525;28;20265;-72
2023/05/30 03:15:46;;;;;;;12.57;11.77;;;;;;;12.72;100.00;92728.56;5018553;28;20286;-72
2023/05/30 03:18:11;;;;;;;13.10;12.20;;;;;;;12.84;100.00;92712.41;5024399;28;20187;-72
2023/05/30 03:20:37;;;;;;;11.10;10.40;;;;;;;12.91;100.00;92726.69;5030987;28;20245;-72
2023/05/30 03:23:02;;;;;;;12.83;11.93;;;;;;;12.85;100.00;92691.16;5003091;28;20217;-70
2023/05/30 03:25:28;;;;;;;11.97;11.23;;;;;;;13.15;100.00;92716.06;5014147;28;20222;-71
2023/05/30 03:27:53;;;;;;;11.77;11.00;;;;;;;13.07;100.00;92734.28;5032174;28;20209;-72
2023/05/30 03:30:22;;;;;;;11.63;10.83;;;;;;;12.89;100.00;92710.47;5015498;28;20238;-73
2023/05/30 03:32:48;;;;;;;11.47;10.77;;;;;;;13.35;100.00;92736.63;5021560;28;20221;-72
2023/05/30 03:35:16;;;;;;;10.97;10.30;;;;;;;13.52;100.00;92746.53;5016774;28;20294;-72
2023/05/30 03:37:41;;;;;;;11.37;10.47;;;;;;;13.72;100.00;92752.16;5021894;28;20206;-71
2023/05/30 03:40:08;;;;;;;12.20;11.30;;;;;;;13.73;100.00;92742.41;5026571;28;20312;-71
2023/05/30 03:42:35;;;;;;;12.33;11.33;;;;;;;14.21;100.00;92760.00;5017137;28;20185;-71
2023/05/30 03:45:01;;;;;;;11.33;10.53;;;;;;;15.08;100.00;92765.59;5015733;28;20222;-71
2023/05/30 03:47:26;;;;;;;11.10;10.40;;;;;;;15.14;99.16;92763.63;5010260;28;20183;-72
2023/05/30 03:49:52;;;;;;;10.67;9.90;;;;;;;14.88;100.00;92767.97;5023366;28;20227;-72
2023/05/30 03:52:17;;;;;;;11.27;10.60;;;;;;;14.60;100.00;92759.41;5007149;28;20683;-71
2023/05/30 03:54:44;;;;;;;11.10;10.20;;;;;;;14.62;100.00;92767.00;5008847;28;20247;-73
2023/05/30 03:57:10;;;;;;;11.87;11.07;;;;;;;14.58;100.00;92771.31;4993623;28;20278;-74
2023/05/30 03:59:35;;;;;;;12.03;11.23;;;;;;;14.53;100.00;92769.56;5010815;28;20254;-75
2023/05/30 04:02:01;;;;;;;11.27;10.57;;;;;;;14.52;100.00;92760.16;5011255;28;20191;-71
2023/05/30 04:04:26;;;;;;;11.43;10.73;;;;;;;14.72;100.00;92769.41;5006113;28;20226;-75
2023/05/30 04:06:52;;;;;;;11.53;10.53;;;;;;;14.68;100.00;92768.44;5011263;28;20211;-75
2023/05/30 04:09:18;;;;;;;11.57;10.77;;;;;;;14.79;100.00;92772.38;5011062;28;20290;-74
2023/05/30 04:11:43;;;;;;;12.17;10.97;;;;;;;14.71;100.00;92778.38;5011495;28;20219;-67
2023/05/30 04:14:09;;;;;;;12.17;11.37;;;;;;;14.48;100.00;92782.81;5012328;28;20294;-70
2023/05/30 04:16:35;;;;;;;10.13;9.53;;;;;;;14.78;100.00;92773.44;5011951;28;20199;-70
2023/05/30 04:19:00;;;;;;;12.17;11.27;;;;;;;14.53;100.00;92780.09;5020466;28;20240;-72
2023/05/30 04:21:26;;;;;;;11.83;11.00;;;;;;;14.97;100.00;92789.81;5012114;28;20191;-72
2023/05/30 04:23:52;;;;;;;11.60;10.73;;;;;;;15.28;100.00;92793.25;4995703;28;20191;-71
2023/05/30 04:26:17;;;;;;;11.20;10.30;;;;;;;15.50;100.00;92777.44;5020549;28;20192;-73
2023/05/30 04:28:43;;;;;;;11.83;10.83;;;;;;;15.49;99.34;92799.53;5008347;28;20211;-71
2023/05/30 04:31:10;;;;;;;11.90;11.07;;;;;;;15.86;98.63;92788.53;5015910;28;20291;-71
2023/05/30 04:33:35;;;;;;;11.60;10.60;;;;;;;16.47;96.51;92801.53;5013916;28;20211;-67
2023/05/30 04:36:06;;;;;;;11.80;11.13;;;;;;;16.97;95.58;92813.16;5009971;28;20274;-66
2023/05/30 04:38:34;;;;;;;11.47;10.60;;;;;;;16.65;94.70;92816.28;5010173;28;20274;-68
2023/05/30 04:41:04;;;;;;;11.83;10.90;;;;;;;17.27;92.32;92806.91;5009616;28;20250;-71
2023/05/30 04:43:30;;;;;;;11.43;10.43;;;;;;;17.72;89.70;92819.69;5010269;28;20176;-71
2023/05/30 04:45:58;;;;;;;12.00;10.97;;;;;;;18.30;86.70;92817.84;5011454;28;20238;-71
2023/05/30 04:48:24;;;;;;;11.83;10.93;;;;;;;18.59;84.19;92830.28;5010138;28;20201;-71
2023/05/30 04:50:49;;;;;;;12.33;11.43;;;;;;;20.24;77.57;92805.00;5008682;28;20227;-69
2023/05/30 04:53:17;;;;;;;10.87;10.17;;;;;;;19.52;74.97;92826.09;5000034;28;20259;-69
2023/05/30 04:55:44;;;;;;;11.10;10.47;;;;;;;19.79;78.30;92820.19;5008863;28;20223;-73
2023/05/30 04:58:10;;;;;;;13.07;11.83;;;;;;;18.47;80.65;92843.44;5007950;28;20191;-72
2023/05/30 05:00:36;;;;;;;12.17;11.30;;;;;;;17.54;83.84;92835.56;5009338;28;20298;-79
2023/05/30 05:03:02;;;;;;;12.43;11.63;;;;;;;18.22;82.92;92841.69;5010780;28;20191;-78
2023/05/30 05:05:28;;;;;;;11.90;10.77;;;;;;;17.70;83.14;92830.56;5009275;28;20894;-78
2023/05/30 05:07:53;;;;;;;10.90;10.10;;;;;;;17.81;83.91;92812.50;5012616;28;20262;-79
2023/05/30 05:10:18;;;;;;;10.97;10.27;;;;;;;18.00;84.52;92844.59;5011515;28;20223;-79
2023/05/30 05:12:44;;;;;;;11.93;11.07;;;;;;;17.92;87.00;92832.97;5013933;28;20199;-79
2023/05/30 05:15:10;;;;;;;12.17;11.37;;;;;;;17.89;87.54;92843.38;5010318;28;20222;-78
2023/05/30 05:17:36;;;;;;;11.57;10.67;;;;;;;17.79;89.23;92827.91;5020310;28;20223;-80
2023/05/30 05:20:05;;;;;;;11.47;10.67;;;;;;;17.74;89.25;92830.72;5011797;28;20243;-77
2023/05/30 05:22:31;;;;;;;12.00;11.10;;;;;;;17.73;87.67;92850.28;5024604;28;20179;-79
2023/05/30 05:24:57;;;;;;;11.33;10.53;;;;;;;17.69;89.15;92838.78;5011420;28;20234;-79
2023/05/30 05:27:22;;;;;;;11.93;11.13;;;;;;;17.79;89.46;92859.59;5011504;28;20235;-77
2023/05/30 05:29:48;;;;;;;12.13;11.23;;;;;;;17.30;88.62;92859.06;5010670;28;20282;-84
2023/05/30 05:32:13;;;;;;;11.57;10.83;;;;;;;17.40;88.58;92837.59;5015753;28;20215;-78
2023/05/30 05:34:39;;;;;;;13.20;12.03;;;;;;;17.55;88.40;92853.00;5009777;28;20254;-79
2023/05/30 05:37:05;;;;;;;12.83;11.73;;;;;;;17.60;90.07;92852.03;5016009;28;20182;-78
2023/05/30 05:39:30;;;;;;;12.10;11.20;;;;;;;17.61;90.95;92845.66;5000127;28;20246;-79
2023/05/30 05:41:56;;;;;;;11.43;10.63;;;;;;;17.44;91.50;92870.25;5025180;28;20167;-79
2023/05/30 05:44:21;;;;;;;12.73;11.63;;;;;;;17.60;90.55;92836.94;5009709;28;20234;-79
2023/05/30 05:46:47;;;;;;;11.80;10.90;;;;;;;17.78;88.73;92863.31;5010395;28;20176;-79
2023/05/30 05:49:12;;;;;;;11.83;11.00;;;;;;;17.74;88.27;92865.81;5009865;28;20223;-79
2023/05/30 05:51:37;;;;;;;12.77;11.90;;;;;;;17.90;89.97;92866.09;5010599;28;20203;-79
2023/05/30 05:54:03;;;;;;;11.73;10.87;;;;;;;17.93;90.24;92860.16;5008654;28;20218;-79
2023/05/30 05:56:28;;;;;;;12.23;11.13;;;;;;;18.13;88.92;92877.94;5010532;28;20235;-79
2023/05/30 05:58:53;;;;;;;11.83;11.03;;;;;;;17.88;88.66;92849.75;5010205;28;20316;-79
2023/05/30 06:01:19;;;;;;;11.97;11.10;;;;;;;17.90;89.68;92861.56;5010681;28;20195;-79
2023/05/30 06:03:44;;;;;;;11.33;10.53;;;;;;;18.00;88.46;92871.00;5009012;28;20175;-78
2023/05/30 06:06:10;;;;;;;12.57;11.53;;;;;;;17.88;88.76;92849.75;5009424;28;20230;-79
2023/05/30 06:08:36;;;;;;;11.67;10.83;;;;;;;18.17;87.55;92876.22;5010562;28;20180;-79
2023/05/30 06:11:01;;;;;;;11.83;11.00;;;;;;;18.24;86.24;92861.41;5013687;28;20294;-79
2023/05/30 06:13:27;;;;;;;11.60;10.80;;;;;;;17.77;86.74;92846.72;5018866;28;20821;-79
2023/05/30 06:15:52;;;;;;;12.63;11.73;;;;;;;18.43;85.31;92850.44;5009311;28;20231;-79
2023/05/30 06:18:17;;;;;;;12.23;11.33;;;;;;;18.42;87.91;92854.97;5009804;28;20199;-79
2023/05/30 06:20:43;;;;;;;11.43;10.63;;;;;;;18.18;86.51;92870.59;5009405;28;20221;-79
2023/05/30 06:23:08;;;;;;;11.73;10.93;;;;;;;18.53;84.13;92868.59;5009701;28;20260;-79
2023/05/30 06:25:33;;;;;;;11.57;10.80;;;;;;;18.41;85.60;92860.59;5008992;28;20218;-79
2023/05/30 06:27:59;;;;;;;11.87;10.97;;;;;;;18.32;85.75;92859.84;5000837;28;20255;-78
2023/05/30 06:30:24;;;;;;;11.20;10.40;;;;;;;18.23;87.22;92859.09;5014879;28;20237;-79
2023/05/30 06:32:50;;;;;;;11.47;10.77;;;;;;;18.38;86.48;92866.50;5019570;28;20929;-79
2023/05/30 06:35:15;;;;;;;11.60;10.80;;;;;;;18.53;86.19;92885.25;5009085;28;20219;-79
2023/05/30 06:37:41;;;;;;;12.23;11.43;;;;;;;18.38;87.77;92882.38;5009713;28;20194;-79
2023/05/30 06:40:07;;;;;;;13.10;12.10;;;;;;;18.55;87.66;92892.84;5009824;28;20207;-79
2023/05/30 06:42:34;;;;;;;11.83;10.80;;;;;;;18.48;84.90;92897.84;4993564;28;20187;-79
2023/05/30 06:45:00;;;;;;;10.80;10.10;;;;;;;18.41;86.09;92900.25;5016825;28;20214;-78
2023/05/30 06:47:25;;;;;;;12.90;11.80;;;;;;;18.37;87.43;92892.13;5013645;28;20226;-78
2023/05/30 06:49:50;;;;;;;11.60;10.87;;;;;;;18.39;86.69;92894.50;5023784;28;20215;-78
2023/05/30 06:52:16;;;;;;;12.57;11.27;;;;;;;18.45;86.10;92903.78;5013522;28;20180;-78
2023/05/30 06:54:41;;;;;;;13.83;12.03;;;;;;;18.40;87.64;92902.09;5012826;28;20290;-78
2023/05/30 06:57:07;;;;;;;12.90;11.70;;;;;;;18.26;88.76;92900.72;5013381;28;20227;-78
2023/05/30 06:59:34;;;;;;;17.90;12.97;;;;;;;18.30;88.66;92896.38;5011330;28;20259;-78
2023/05/30 07:02:00;;;;;;;13.77;12.67;;;;;;;18.13;88.97;92886.66;5014276;28;20195;-78
2023/05/30 07:04:26;;;;;;;14.50;13.30;;;;;;;18.20;89.62;92889.56;5004848;28;20238;-78
2023/05/30 07:06:52;;;;;;;13.87;12.67;;;;;;;18.21;90.46;92896.41;5013461;28;20187;-78
2023/05/30 07:09:18;;;;;;;14.63;13.30;;;;;;;18.19;90.32;92895.97;4995198;28;20258;-78
2023/05/30 07:11:43;;;;;;;14.87;13.40;;;;;;;18.19;90.75;92887.25;4995826;28;20291;-78
2023/05/30 07:14:11;;;;;;;14.47;12.90;;;;;;;18.10;91.77;92882.00;5017499;28;20311;-78
2023/05/30 07:16:36;;;;;;;13.67;12.47;;;;;;;18.54;91.09;92901.88;5014513;28;20177;-78
2023/05/30 07:19:02;;;;;;;15.40;14.00;;;;;;;18.18;91.11;92901.56;5010146;28;20185;-78
2023/05/30 07:21:28;;;;;;;14.73;13.43;;;;;;;18.53;89.48;92903.75;5013249;28;20194;-79
2023/05/30 07:23:55;;;;;;;15.43;13.90;;;;;;;19.10;87.65;92909.28;5026011;28;20180;-78
2023/05/30 07:26:21;;;;;;;14.97;13.33;;;;;;;19.28;87.87;92902.03;5013421;28;20182;-78
2023/05/30 07:28:47;;;;;;;12.63;11.60;;;;;;;19.50;83.36;92928.94;5016462;28;20208;-78
2023/05/30 07:31:12;;;;;;;15.60;13.40;;;;;;;19.28;86.10;92905.44;5009836;28;20353;-79
2023/05/30 07:33:37;;;;;;;15.23;13.37;;;;;;;19.80;82.16;92913.72;5018131;28;20200;-79
2023/05/30 07:36:03;;;;;;;14.63;12.87;;;;;;;19.79;82.74;92912.13;5012326;28;20224;-78
2023/05/30 07:38:28;;;;;;;13.03;11.80;;;;;;;20.44;78.70;92920.78;5013489;28;20191;-78
2023/05/30 07:40:53;;;;;;;13.27;12.17;;;;;;;20.43;79.05;92907.84;5011973;28;20223;-78
2023/05/30 07:43:19;;;;;;;12.80;11.80;;;;;;;20.87;77.91;92919.44;5012331;28;20186;-78
2023/05/30 07:45:44;;;;;;;13.07;11.80;;;;;;;21.01;74.89;92914.59;4994700;28;20228;-79
2023/05/30 07:48:10;;;;;;;15.30;13.93;;;;;;;21.05;76.10;92908.28;5008005;28;20263;-72
2023/05/30 07:50:35;;;;;;;30.47;23.63;;;;;;;21.37;75.23;92927.78;5007901;28;20234;-74
2023/05/30 07:53:01;;;;;;;23.83;20.47;;;;;;;21.13;74.46;92925.19;5012092;28;20240;-70
2023/05/30 07:55:26;;;;;;;20.13;16.50;;;;;;;21.21;75.07;92924.28;5011964;28;20222;-72
2023/05/30 07:57:52;;;;;;;28.80;22.23;;;;;;;21.11;74.81;92927.41;5011945;28;20186;-71
2023/05/30 08:00:17;;;;;;;16.80;14.17;;;;;;;21.41;73.31;92920.69;5011530;28;20234;-71
2023/05/30 08:02:43;;;;;;;15.43;13.83;;;;;;;21.50;72.47;92930.06;5011576;28;20197;-73
2023/05/30 08:05:08;;;;;;;14.67;13.37;;;;;;;21.39;73.03;92929.00;5005482;28;20221;-72
2023/05/30 08:07:34;;;;;;;13.70;12.50;;;;;;;21.22;72.99;92923.94;5012106;28;20190;-71
2023/05/30 08:09:59;;;;;;;13.57;12.47;;;;;;;21.24;76.16;92920.97;5011589;28;20222;-73
2023/05/30 08:12:29;;;;;;;17.03;12.97;;;;;;;21.23;74.37;92922.09;5014794;28;20297;-74
2023/05/30 08:14:57;;;;;;;14.47;12.40;;;;;;;21.04;76.60;92913.94;5009351;28;20797;-74
2023/05/30 08:17:24;;;;;;;15.10;13.50;;;;;;;20.93;77.11;92926.88;5018995;28;20218;-73
2023/05/30 08:19:55;;;;;;;13.73;12.43;;;;;;;21.07;74.93;92926.53;5011707;28;20247;-73
2023/05/30 08:22:22;;;;;;;13.83;11.90;;;;;;;21.17;75.83;92926.09;5011913;28;20174;-73
2023/05/30 08:24:54;;;;;;;13.03;11.83;;;;;;;21.52;73.82;92935.81;5010902;28;20286;-73
2023/05/30 08:27:21;;;;;;;12.13;11.13;;;;;;;21.01;74.23;92930.53;5016924;28;20224;-73
2023/05/30 08:29:49;;;;;;;12.43;11.27;;;;;;;22.03;70.44;92937.63;5015996;28;20309;-72
2023/05/30 08:32:16;;;;;;;10.88;10.18;;;;;;;22.05;68.29;92919.41;5011681;28;20182;-71
2023/05/30 08:34:41;;;;;;;11.95;11.02;;;;;;;22.46;65.38;92934.13;5011247;28;20246;-72
2023/05/30 08:37:07;;;;;;;11.50;10.67;;;;;;;22.17;73.38;92926.56;5012047;28;20194;-71
2023/05/30 08:39:33;;;;;;;11.15;10.43;;;;;;;22.51;66.01;92930.44;5011381;28;20233;-73
2023/05/30 08:41:59;;;;;;;11.90;11.05;;;;;;;22.43;68.21;92929.50;5013284;28;20227;-72
2023/05/30 08:44:25;;;;;;;10.82;9.93;;;;;;;22.53;68.25;92923.69;5012268;28;20229;-72
2023/05/30 08:46:51;;;;;;;11.77;10.68;;;;;;;22.44;65.48;92924.97;5011694;28;20221;-72
2023/05/30 08:49:20;;;;;;;11.05;10.23;;;;;;;22.13;65.75;92931.03;5010517;28;20833;-72
2023/05/30 08:51:47;;;;;;;11.80;10.65;;;;;;;21.59;69.97;92932.56;5011808;28;20194;-72
2023/05/30 08:54:22;;;;;;;12.35;11.15;;;;;;;21.53;69.02;92933.94;5010741;28;20233;-72
2023/05/30 08:56:57;;;;;;;14.10;11.50;;;;;;;21.69;67.44;92937.41;5011295;28;20193;-71
2023/05/30 08:59:25;;;;;;;13.93;12.15;;;;;;;21.44;71.29;92935.94;5009706;28;20236;-73
2023/05/30 09:01:53;;;;;;;12.60;11.43;;;;;;;21.52;70.32;92935.81;5011420;28;20202;-69
2023/05/30 09:04:20;;;;;;;12.60;11.47;;;;;;;21.49;69.93;92925.09;5009994;28;20289;-73
2023/05/30 09:06:46;;;;;;;11.82;10.82;;;;;;;21.87;68.10;92917.41;5011179;28;20197;-71
2023/05/30 09:09:13;;;;;;;12.48;11.20;;;;;;;21.93;68.63;92918.75;5006620;28;20229;-71
2023/05/30 09:11:40;;;;;;;11.98;10.90;;;;;;;22.59;67.72;92943.63;5011050;28;20220;-73
2023/05/30 09:14:06;;;;;;;12.45;11.40;;;;;;;21.52;68.88;92922.53;5009839;28;20212;-73
2023/05/30 09:16:32;;;;;;;11.75;10.75;;;;;;;22.31;68.21;92937.56;5008103;28;20180;-72
2023/05/30 09:18:58;;;;;;;12.00;10.93;;;;;;;22.68;67.03;92930.91;5007471;28;20187;-71
2023/05/30 09:21:24;;;;;;;11.82;10.80;;;;;;;22.83;65.71;92942.66;5009570;28;20204;-70
2023/05/30 09:23:50;;;;;;;12.30;11.30;;;;;;;22.96;63.55;92942.22;5011923;28;20193;-69
2023/05/30 09:26:15;;;;;;;11.27;10.38;;;;;;;23.16;65.17;92927.81;5008407;28;20220;-71
2023/05/30 09:28:44;;;;;;;11.60;10.70;;;;;;;23.29;63.63;92944.47;5003566;28;20217;-70
2023/05/30 09:31:09;;;;;;;12.43;11.32;;;;;;;22.60;65.93;92942.50;5010722;28;20224;-71
2023/05/30 09:33:46;;;;;;;12.65;11.55;;;;;;;22.82;64.48;92936.56;5007672;28;20267;-72
2023/05/30 09:36:29;;;;;;;12.57;11.27;;;;;;;23.15;63.27;92926.28;5005007;28;20249;-70
2023/05/30 09:39:04;;;;;;;12.80;11.77;;;;;;;23.40;65.59;92934.81;5015567;28;20191;-70
2023/05/30 09:41:30;;;;;;;13.70;12.40;;;;;;;23.20;65.44;92925.22;5012418;28;20185;-70
2023/05/30 09:43:56;;;;;;;14.63;13.15;;;;;;;22.85;66.80;92925.22;5009584;28;20203;-70
2023/05/30 09:46:23;;;;;;;12.82;11.52;;;;;;;23.13;68.21;92935.75;5016060;28;20196;-69
2023/05/30 09:48:49;;;;;;;19.92;13.63;;;;;;;23.34;66.29;92931.69;5006867;28;20198;-71
2023/05/30 09:51:15;;;;;;;15.02;13.40;;;;;;;23.44;65.59;92928.44;5010248;28;20294;-70
2023/05/30 09:53:54;;;;;;;14.02;12.73;;;;;;;23.57;66.76;92932.53;5010785;28;20272;-70
2023/05/30 09:56:20;;;;;;;14.38;12.98;;;;;;;23.44;62.33;92944.44;5017759;28;20245;-69
2023/05/30 09:58:45;;;;;;;14.15;12.93;;;;;;;22.70;67.15;92923.34;4992316;28;20287;-70
2023/05/30 10:01:18;;;;;;;14.55;13.35;;;;;;;22.71;64.66;92919.56;5010057;28;20228;-70
2023/05/30 10:03:44;;;;;;;14.32;12.88;;;;;;;23.01;67.36;92927.84;5008590;28;20214;-69
2023/05/30 10:06:16;;;;;;;13.30;11.20;;;;;;;23.72;65.07;92918.34;5018057;28;20242;-71
2023/05/30 10:08:46;;;;;;;12.25;11.05;;;;;;;24.11;62.91;92919.09;5010044;28;20195;-71
2023/05/30 10:11:15;;;;;;;13.02;11.73;;;;;;;23.77;61.09;92891.41;5009110;28;20350;-71
2023/05/30 10:13:41;;;;;;;12.52;11.43;;;;;;;23.60;67.46;92918.50;5010800;28;20213;-72
2023/05/30 10:16:19;;;;;;;13.73;12.35;;;;;;;23.39;63.20;92919.97;5001005;28;20223;-71
2023/05/30 10:18:55;;;;;;;13.13;12.02;;;;;;;22.78;64.25;92919.75;5024529;28;20190;-71
2023/05/30 10:21:22;;;;;;;12.18;11.07;;;;;;;22.59;69.50;92910.91;5014176;28;20221;-71
2023/05/30 10:23:48;;;;;;;12.82;11.63;;;;;;;24.00;65.67;92912.78;5025081;28;20195;-72
2023/05/30 10:26:16;;;;;;;12.95;11.02;;;;;;;24.53;59.58;92911.06;5019974;28;20232;-71
2023/05/30 10:28:47;;;;;;;11.60;10.52;;;;;;;23.72;61.46;92905.00;5016063;28;20182;-70
2023/05/30 10:31:14;;;;;;;11.63;10.48;;;;;;;24.22;62.93;92911.31;5015771;28;20232;-71
2023/05/30 10:33:43;;;;;;;12.02;10.93;;;;;;;23.79;62.22;92909.72;5020660;28;20235;-71
2023/05/30 10:36:09;;;;;;;12.77;11.55;;;;;;;23.43;63.71;92897.59;5023706;28;20285;-71
2023/05/30 10:38:46;;;;;;;15.35;11.48;;;;;;;23.65;61.50;92888.13;5016076;28;20187;-70
2023/05/30 10:41:33;;;;;;;12.80;10.85;;;;;;;23.60;63.70;92899.84;5014924;28;20723;-70
2023/05/30 10:44:10;;;;;;;16.00;12.18;;;;;;;23.75;63.37;92898.22;5020863;28;20201;-73
2023/05/30 10:46:53;;;;;;;11.57;10.68;;;;;;;23.65;62.21;92894.22;5010850;28;20228;-69
2023/05/30 10:49:24;;;;;;;12.10;10.93;;;;;;;23.04;62.60;92879.22;5015660;28;20229;-68
2023/05/30 10:52:05;;;;;;;9.43;8.77;;;;;;;22.56;58.42;92895.63;5014775;28;20200;-69
2023/05/30 10:54:33;;;;;;;11.57;10.30;;;;;;;22.09;62.47;92882.28;5017612;28;20850;-69
2023/05/30 10:57:26;;;;;;;12.65;11.20;;;;;;;22.15;64.55;92875.59;5016224;28;20183;-69
2023/05/30 10:59:55;;;;;;;11.63;10.52;;;;;;;21.80;63.39;92869.41;5018103;28;20313;-70
2023/05/30 11:02:35;;;;;;;10.45;9.65;;;;;;;21.79;63.85;92875.84;5010287;28;20210;-70
2023/05/30 11:05:18;;;;;;;11.82;10.77;;;;;;;21.64;64.96;92863.25;5016950;28;20253;-71
2023/05/30 11:07:43;;;;;;;10.50;9.80;;;;;;;21.74;64.71;92870.72;5019865;28;21332;-71
2023/05/30 11:10:14;;;;;;;11.32;10.43;;;;;;;22.38;66.23;92870.47;5019841;28;20244;-71
2023/05/30 11:12:44;;;;;;;11.25;10.35;;;;;;;22.62;63.33;92868.41;5015932;28;20196;-70
2023/05/30 11:15:15;;;;;;;10.20;9.43;;;;;;;22.79;61.41;92856.59;5017851;28;20672;-72